Terminal Aerodrome Forecast
Issued by NWS

Home | Current Version | Previous Version | Text Only | Print | Product List | Glossary On
Versions: 1 2 3 4 5 6 7 8 9 10 11 12 13 14 15 16 17 18 19 20 21 22 23 24 25 26 27 28 29 30 31 32 33 34 35 36 37 38 39 40 41 42 43 44 45 46 47 48
000
FTUS44 KLIX 271132
TAFHUM
TAF
KHUM 271132Z 2712/2812 08007KT 4SM BR SCT005 BKN015
      TEMPO 2712/2714 BKN005
     FM271400 10009KT P6SM VCTS BKN025CB
     FM271600 10012KT 5SM -SHRA BKN025
      TEMPO 2716/2720 VRB25G35KT +TSRA OVC010CB
     FM272300 07012KT 4SM SHRA BKN015
     FM280400 10011KT 3SM -SHRA OVC015=

USA.gov is the U.S. government's official web portal to all federal, state and local government web resources and services.